Time;durP1;ratioP1;P1;durP2;ratioP2;P2;SDS_P1;SDS_P2;PMS_P1;PMS_P2;Temp;Humidity;BMP_temperature;BMP_pressure;BME280_temperature;BME280_humidity;BME280_pressure;Samples;Min_cycle;Max_cycle;Signal;HPM_P1;HPM_P2
2024/03/29 00:00:44;;;;;;;0.57;0.00;;;;;;;;;;5055003;28;20028;-87
2024/03/29 00:03:10;;;;;;;0.03;0.00;;;;;;;;;;5048203;28;20078;-87
2024/03/29 00:05:36;;;;;;;0.20;0.10;;;;;;;;;;5036109;28;20045;-87
2024/03/29 00:08:03;;;;;;;0.00;0.00;;;;;;;;;;5045408;28;20032;-87
2024/03/29 00:10:29;;;;;;;0.00;0.00;;;;;;;;;;5041937;28;20490;-86
2024/03/29 00:12:56;;;;;;;2.75;0.43;;;;;;;;;;5049854;28;20028;-86
2024/03/29 00:15:22;;;;;;;0.55;0.47;;;;;;;;;;5048284;28;20048;-86
2024/03/29 00:17:48;;;;;;;0.00;0.00;;;;;;;;;;5048629;28;20028;-86
2024/03/29 00:20:15;;;;;;;0.75;0.52;;;;;;;;;;5054552;28;20033;-86
2024/03/29 00:22:41;;;;;;;0.55;0.00;;;;;;;;;;5044799;28;20656;-87
2024/03/29 00:25:07;;;;;;;0.03;0.03;;;;;;;;;;5043120;28;20036;-87
2024/03/29 00:27:33;;;;;;;0.08;0.00;;;;;;;;;;5048884;28;20033;-87
2024/03/29 00:29:59;;;;;;;0.00;0.00;;;;;;;;;;5047280;28;20045;-87
2024/03/29 00:32:26;;;;;;;0.10;0.10;;;;;;;;;;5048487;28;20462;-87
2024/03/29 00:34:54;;;;;;;0.00;0.00;;;;;;;;;;5057606;28;20471;-87
2024/03/29 00:37:20;;;;;;;2.65;0.63;;;;;;;;;;5051916;28;20029;-87
2024/03/29 00:39:46;;;;;;;0.00;0.00;;;;;;;;;;5055260;28;20066;-85
2024/03/29 00:42:15;;;;;;;0.00;0.00;;;;;;;;;;5053785;28;20478;-86
2024/03/29 00:44:41;;;;;;;0.38;0.00;;;;;;;;;;5046442;28;20091;-86
2024/03/29 00:47:07;;;;;;;0.20;0.10;;;;;;;;;;5053777;28;20032;-87
2024/03/29 00:49:33;;;;;;;0.32;0.10;;;;;;;;;;5046959;28;20063;-87
2024/03/29 00:51:59;;;;;;;0.00;0.00;;;;;;;;;;5054266;28;20059;-86
2024/03/29 00:54:25;;;;;;;0.00;0.00;;;;;;;;;;5050893;28;20036;-86
2024/03/29 00:56:52;;;;;;;0.38;0.10;;;;;;;;;;5048887;28;20024;-85
2024/03/29 00:59:18;;;;;;;0.00;0.00;;;;;;;;;;5069245;28;20039;-87
2024/03/29 01:01:44;;;;;;;0.00;0.00;;;;;;;;;;5034636;28;20033;-86
2024/03/29 01:04:10;;;;;;;0.73;0.25;;;;;;;;;;5067890;28;20801;-87
2024/03/29 01:06:36;;;;;;;0.05;0.03;;;;;;;;;;5038877;28;20086;-86
2024/03/29 01:09:03;;;;;;;0.10;0.10;;;;;;;;;;5050238;28;20463;-86
2024/03/29 01:11:29;;;;;;;0.00;0.00;;;;;;;;;;5056781;28;20037;-86
2024/03/29 01:13:55;;;;;;;1.08;0.57;;;;;;;;;;5070683;28;20032;-87
2024/03/29 01:16:21;;;;;;;0.57;0.00;;;;;;;;;;5051379;28;20031;-87
2024/03/29 01:18:47;;;;;;;0.95;0.13;;;;;;;;;;5052220;28;20050;-86
2024/03/29 01:21:13;;;;;;;1.75;0.20;;;;;;;;;;5056737;28;20467;-86
2024/03/29 01:23:39;;;;;;;0.47;0.10;;;;;;;;;;5045477;28;20382;-86
2024/03/29 01:26:06;;;;;;;0.00;0.00;;;;;;;;;;5048228;28;20044;-86
2024/03/29 01:28:32;;;;;;;0.00;0.00;;;;;;;;;;5042197;28;20486;-86
2024/03/29 01:30:58;;;;;;;0.95;0.47;;;;;;;;;;5046726;28;20114;-86
2024/03/29 01:33:24;;;;;;;0.00;0.00;;;;;;;;;;5050035;28;20079;-86
2024/03/29 01:35:50;;;;;;;0.00;0.00;;;;;;;;;;5050458;28;20033;-85
2024/03/29 01:38:16;;;;;;;0.00;0.00;;;;;;;;;;5065198;28;20033;-86
2024/03/29 01:40:43;;;;;;;1.88;0.55;;;;;;;;;;5035804;28;20155;-86
2024/03/29 01:43:09;;;;;;;0.38;0.00;;;;;;;;;;5044492;28;20052;-86
2024/03/29 01:45:42;;;;;;;0.75;0.30;;;;;;;;;;5033710;28;20574;-85
2024/03/29 01:48:11;;;;;;;0.10;0.00;;;;;;;;;;5048457;28;20033;-86
2024/03/29 01:50:37;;;;;;;0.20;0.10;;;;;;;;;;5067424;28;20174;-85
2024/03/29 01:53:04;;;;;;;3.53;0.13;;;;;;;;;;5064294;28;20877;-86
2024/03/29 01:55:30;;;;;;;0.47;0.17;;;;;;;;;;5044981;28;20127;-87
2024/03/29 01:57:57;;;;;;;0.05;0.05;;;;;;;;;;5062070;28;20100;-86
2024/03/29 02:00:23;;;;;;;2.40;0.20;;;;;;;;;;5036928;28;20312;-86
2024/03/29 02:02:49;;;;;;;0.52;0.50;;;;;;;;;;5041119;28;20386;-85
2024/03/29 02:05:15;;;;;;;4.68;0.20;;;;;;;;;;5049993;28;20409;-85
2024/03/29 02:07:42;;;;;;;2.10;0.52;;;;;;;;;;5041868;28;20078;-86
2024/03/29 02:10:10;;;;;;;0.15;0.10;;;;;;;;;;5050662;28;20060;-86
2024/03/29 02:12:36;;;;;;;0.68;0.15;;;;;;;;;;5035178;28;20442;-86
2024/03/29 02:15:02;;;;;;;0.00;0.00;;;;;;;;;;5053542;28;20065;-86
2024/03/29 02:17:28;;;;;;;0.00;0.00;;;;;;;;;;5042256;28;20032;-86
2024/03/29 02:19:55;;;;;;;2.40;1.30;;;;;;;;;;5031756;28;20124;-86
2024/03/29 02:22:22;;;;;;;0.00;0.00;;;;;;;;;;5041686;28;20050;-87
2024/03/29 02:24:48;;;;;;;0.17;0.00;;;;;;;;;;5064558;28;20029;-86
2024/03/29 02:27:14;;;;;;;0.20;0.00;;;;;;;;;;5049196;28;20094;-86
2024/03/29 02:29:40;;;;;;;0.10;0.00;;;;;;;;;;5043880;28;20043;-87
2024/03/29 02:32:06;;;;;;;0.10;0.10;;;;;;;;;;5052103;28;20032;-85
2024/03/29 02:34:32;;;;;;;0.15;0.00;;;;;;;;;;5064071;28;20036;-87
2024/03/29 02:36:59;;;;;;;0.30;0.20;;;;;;;;;;5056279;28;20588;-85
2024/03/29 02:39:25;;;;;;;0.30;0.10;;;;;;;;;;5066105;28;20032;-86
2024/03/29 02:41:51;;;;;;;1.02;0.17;;;;;;;;;;5064081;28;20597;-86
2024/03/29 02:44:17;;;;;;;3.10;0.28;;;;;;;;;;5048626;28;20029;-86
2024/03/29 02:46:43;;;;;;;0.05;0.00;;;;;;;;;;5062991;28;20103;-85
2024/03/29 02:49:09;;;;;;;0.15;0.08;;;;;;;;;;5048637;28;20174;-85
2024/03/29 02:51:36;;;;;;;0.38;0.08;;;;;;;;;;5055162;28;20119;-86
2024/03/29 02:54:02;;;;;;;1.83;0.90;;;;;;;;;;5049505;28;20040;-85
2024/03/29 02:56:28;;;;;;;12.95;0.80;;;;;;;;;;5056298;28;20029;-86
2024/03/29 02:58:55;;;;;;;1.92;0.88;;;;;;;;;;5048507;28;20028;-86
2024/03/29 03:01:21;;;;;;;3.42;0.35;;;;;;;;;;5065893;28;20533;-86
2024/03/29 03:03:47;;;;;;;1.88;0.43;;;;;;;;;;5052838;28;20040;-86
2024/03/29 03:06:13;;;;;;;2.67;0.35;;;;;;;;;;5053564;28;20028;-86
2024/03/29 03:11:24;;;;;;;1.00;0.50;;;;;;;;;;5063840;28;20048;-87
2024/03/29 03:13:50;;;;;;;1.50;0.50;;;;;;;;;;5059157;28;20025;-86
2024/03/29 03:16:16;;;;;;;1.58;0.60;;;;;;;;;;5041553;28;20410;-85
2024/03/29 03:18:42;;;;;;;4.03;0.40;;;;;;;;;;5042803;28;20029;-85
2024/03/29 03:21:08;;;;;;;0.90;0.70;;;;;;;;;;5047357;28;20037;-87
2024/03/29 03:23:34;;;;;;;0.55;0.20;;;;;;;;;;5039505;28;20032;-86
2024/03/29 03:26:01;;;;;;;0.00;0.00;;;;;;;;;;5048111;28;20349;-86
2024/03/29 03:28:27;;;;;;;0.43;0.25;;;;;;;;;;5056558;28;20048;-85
2024/03/29 03:30:53;;;;;;;0.10;0.10;;;;;;;;;;5048469;28;20036;-86
2024/03/29 03:33:20;;;;;;;0.20;0.05;;;;;;;;;;5051739;28;20397;-86
2024/03/29 03:35:46;;;;;;;0.13;0.08;;;;;;;;;;5047962;28;20047;-86
2024/03/29 03:38:12;;;;;;;0.22;0.20;;;;;;;;;;5062152;28;20075;-85
2024/03/29 03:40:38;;;;;;;3.28;0.10;;;;;;;;;;5041249;28;20083;-86
2024/03/29 03:43:08;;;;;;;0.00;0.00;;;;;;;;;;5066153;28;20041;-85
2024/03/29 03:45:35;;;;;;;1.67;0.20;;;;;;;;;;5071080;28;20075;-86
2024/03/29 03:48:01;;;;;;;0.10;0.00;;;;;;;;;;5035590;28;20052;-86
2024/03/29 03:50:27;;;;;;;1.75;0.05;;;;;;;;;;5044881;28;20035;-86
2024/03/29 03:52:53;;;;;;;0.30;0.10;;;;;;;;;;5072240;28;20020;-85
2024/03/29 03:55:19;;;;;;;0.30;0.25;;;;;;;;;;5063308;28;20447;-87
2024/03/29 03:57:45;;;;;;;0.65;0.17;;;;;;;;;;5041023;28;20123;-86
2024/03/29 04:00:12;;;;;;;0.43;0.25;;;;;;;;;;5046421;28;20883;-86
2024/03/29 04:02:38;;;;;;;0.10;0.10;;;;;;;;;;5048696;28;20127;-86
2024/03/29 04:05:04;;;;;;;0.80;0.10;;;;;;;;;;5057721;28;20033;-86
2024/03/29 04:07:30;;;;;;;0.50;0.40;;;;;;;;;;5042069;28;20037;-86
2024/03/29 04:09:56;;;;;;;0.20;0.00;;;;;;;;;;5033149;28;20048;-85
2024/03/29 04:12:22;;;;;;;0.00;0.00;;;;;;;;;;5043886;28;20135;-86
2024/03/29 04:14:48;;;;;;;1.85;0.20;;;;;;;;;;5050113;28;20110;-85
2024/03/29 04:17:14;;;;;;;2.97;0.82;;;;;;;;;;5059715;28;20285;-85
2024/03/29 04:19:40;;;;;;;0.10;0.10;;;;;;;;;;5046060;28;20545;-86
2024/03/29 04:22:06;;;;;;;1.02;0.40;;;;;;;;;;5042293;28;20350;-86
2024/03/29 04:24:32;;;;;;;0.25;0.10;;;;;;;;;;5048918;28;20106;-86
2024/03/29 04:26:58;;;;;;;1.55;0.20;;;;;;;;;;5047440;28;20490;-86
2024/03/29 04:29:24;;;;;;;1.17;0.10;;;;;;;;;;5061418;28;20572;-85
2024/03/29 04:31:50;;;;;;;1.95;0.10;;;;;;;;;;5072650;28;20071;-87
2024/03/29 04:34:16;;;;;;;0.43;0.40;;;;;;;;;;5084255;28;20033;-86
2024/03/29 04:36:42;;;;;;;0.17;0.10;;;;;;;;;;5051488;28;20899;-86
2024/03/29 04:39:08;;;;;;;0.80;0.43;;;;;;;;;;5051682;28;20127;-85
2024/03/29 04:41:34;;;;;;;0.63;0.30;;;;;;;;;;5034450;28;20077;-86
2024/03/29 04:44:04;;;;;;;0.70;0.55;;;;;;;;;;5049431;28;20120;-86
2024/03/29 04:46:30;;;;;;;0.20;0.10;;;;;;;;;;5048560;28;20044;-86
2024/03/29 04:48:57;;;;;;;0.00;0.00;;;;;;;;;;5073680;28;20075;-87
2024/03/29 04:51:23;;;;;;;0.10;0.10;;;;;;;;;;5047436;28;20819;-85
2024/03/29 04:53:49;;;;;;;0.20;0.10;;;;;;;;;;5048316;28;20029;-85
2024/03/29 04:56:15;;;;;;;2.63;0.30;;;;;;;;;;5049973;28;20111;-86
2024/03/29 04:58:42;;;;;;;0.00;0.00;;;;;;;;;;5061672;28;20041;-86
2024/03/29 05:01:08;;;;;;;0.47;0.10;;;;;;;;;;5053443;28;20025;-85
2024/03/29 05:03:35;;;;;;;0.28;0.20;;;;;;;;;;5056504;28;20657;-87
2024/03/29 05:06:01;;;;;;;1.27;0.60;;;;;;;;;;5052698;28;20505;-86
2024/03/29 05:08:27;;;;;;;0.40;0.30;;;;;;;;;;5044980;28;20568;-85
2024/03/29 05:10:53;;;;;;;1.38;0.28;;;;;;;;;;5043969;28;20028;-86
2024/03/29 05:13:22;;;;;;;0.15;0.08;;;;;;;;;;5040485;28;20037;-86
2024/03/29 05:15:48;;;;;;;3.15;1.00;;;;;;;;;;5055783;28;20538;-86
2024/03/29 05:18:14;;;;;;;2.42;0.43;;;;;;;;;;5069053;28;20478;-85
2024/03/29 05:20:48;;;;;;;0.10;0.10;;;;;;;;;;5062750;28;20032;-86
2024/03/29 05:23:14;;;;;;;0.95;0.32;;;;;;;;;;5045405;28;20397;-85
2024/03/29 05:25:41;;;;;;;1.52;0.75;;;;;;;;;;5036357;28;20052;-86
2024/03/29 05:28:07;;;;;;;0.10;0.00;;;;;;;;;;5050966;28;20506;-86
2024/03/29 05:30:35;;;;;;;3.13;0.30;;;;;;;;;;5055533;28;20044;-86
2024/03/29 05:33:01;;;;;;;1.10;0.45;;;;;;;;;;5037952;28;20029;-86
2024/03/29 05:35:27;;;;;;;0.95;0.57;;;;;;;;;;5045214;28;20067;-86
2024/03/29 05:37:54;;;;;;;1.48;0.20;;;;;;;;;;5052570;28;20033;-85
2024/03/29 05:40:25;;;;;;;0.10;0.10;;;;;;;;;;5049299;28;20040;-86
2024/03/29 05:42:52;;;;;;;0.55;0.10;;;;;;;;;;5048956;28;20055;-85
2024/03/29 05:45:25;;;;;;;2.22;0.40;;;;;;;;;;5046796;28;20652;-86
2024/03/29 05:47:52;;;;;;;0.38;0.28;;;;;;;;;;5051448;28;20484;-85
2024/03/29 05:50:18;;;;;;;2.75;0.10;;;;;;;;;;5050588;28;20123;-85
2024/03/29 05:52:44;;;;;;;0.00;0.00;;;;;;;;;;5040572;28;20127;-85
2024/03/29 05:55:10;;;;;;;0.15;0.05;;;;;;;;;;5050540;28;20375;-86
2024/03/29 05:57:40;;;;;;;2.28;0.60;;;;;;;;;;5051488;28;20032;-86
2024/03/29 06:00:07;;;;;;;0.45;0.20;;;;;;;;;;5046539;28;20041;-86
2024/03/29 06:02:34;;;;;;;4.35;0.22;;;;;;;;;;5045382;28;20103;-86
2024/03/29 06:05:00;;;;;;;0.45;0.25;;;;;;;;;;5066273;28;20854;-86
2024/03/29 06:07:28;;;;;;;0.15;0.10;;;;;;;;;;5060495;28;20067;-85
2024/03/29 06:09:54;;;;;;;0.00;0.00;;;;;;;;;;5031935;28;20893;-85
2024/03/29 06:12:20;;;;;;;0.47;0.20;;;;;;;;;;5065629;28;20040;-85
2024/03/29 06:17:31;;;;;;;1.23;0.38;;;;;;;;;;5059821;28;20040;-84
2024/03/29 06:19:58;;;;;;;1.83;1.05;;;;;;;;;;5061300;28;20029;-85
2024/03/29 06:22:24;;;;;;;0.63;0.43;;;;;;;;;;5035055;28;20037;-85
2024/03/29 06:24:51;;;;;;;2.00;0.10;;;;;;;;;;5063959;28;20037;-85
2024/03/29 06:27:20;;;;;;;4.68;0.63;;;;;;;;;;5065938;28;20048;-85
2024/03/29 06:29:46;;;;;;;0.50;0.20;;;;;;;;;;5048064;28;20049;-84
2024/03/29 06:32:12;;;;;;;0.15;0.10;;;;;;;;;;5042589;28;20037;-83
2024/03/29 06:34:38;;;;;;;0.85;0.25;;;;;;;;;;5045845;28;20470;-85
2024/03/29 06:37:04;;;;;;;0.13;0.10;;;;;;;;;;5047013;28;20036;-85
2024/03/29 06:39:30;;;;;;;0.63;0.13;;;;;;;;;;5054720;28;20021;-86
2024/03/29 06:41:56;;;;;;;0.77;0.30;;;;;;;;;;5055541;28;20063;-87
2024/03/29 06:44:22;;;;;;;4.03;1.75;;;;;;;;;;5056930;28;20129;-86
2024/03/29 06:46:49;;;;;;;0.30;0.20;;;;;;;;;;5047640;28;20508;-87
2024/03/29 06:49:15;;;;;;;2.85;0.52;;;;;;;;;;5052654;28;20409;-87
2024/03/29 06:51:41;;;;;;;0.15;0.10;;;;;;;;;;5049379;28;20033;-86
2024/03/29 06:54:07;;;;;;;1.38;0.20;;;;;;;;;;5046680;28;20509;-86
2024/03/29 06:56:33;;;;;;;1.50;0.73;;;;;;;;;;5051039;28;20037;-87
2024/03/29 06:58:59;;;;;;;1.35;0.38;;;;;;;;;;5042055;28;20033;-87
2024/03/29 07:01:25;;;;;;;1.65;0.43;;;;;;;;;;5041684;28;20056;-86
2024/03/29 07:03:51;;;;;;;2.67;0.32;;;;;;;;;;5041779;28;20029;-86
2024/03/29 07:06:17;;;;;;;0.15;0.05;;;;;;;;;;5051061;28;20432;-86
2024/03/29 07:08:43;;;;;;;15.63;0.45;;;;;;;;;;5050239;28;20059;-86
2024/03/29 07:11:10;;;;;;;4.80;1.15;;;;;;;;;;5055263;28;20040;-86
2024/03/29 07:13:36;;;;;;;1.50;0.32;;;;;;;;;;5041325;28;20123;-86
2024/03/29 07:16:03;;;;;;;0.90;0.35;;;;;;;;;;5041689;28;20033;-86
2024/03/29 07:18:29;;;;;;;0.77;0.30;;;;;;;;;;5040216;28;20052;-86
2024/03/29 07:20:55;;;;;;;0.85;0.45;;;;;;;;;;5053930;28;20047;-87
2024/03/29 07:23:21;;;;;;;1.88;0.25;;;;;;;;;;5056039;28;20093;-87
2024/03/29 07:26:04;;;;;;;0.75;0.40;;;;;;;;;;5042362;28;20086;-86
2024/03/29 07:28:30;;;;;;;;;;;;;;;;;;5041797;28;20478;-86
2024/03/29 07:30:56;;;;;;;0.30;0.10;;;;;;;;;;5070355;28;19927;-86
2024/03/29 07:33:29;;;;;;;0.20;0.10;;;;;;;;;;5051872;28;20493;-86
2024/03/29 07:35:55;;;;;;;1.10;0.10;;;;;;;;;;5038683;28;20082;-87
2024/03/29 07:38:21;;;;;;;0.80;0.40;;;;;;;;;;5063940;28;20115;-86
2024/03/29 07:40:48;;;;;;;0.30;0.10;;;;;;;;;;5051457;28;20116;-87
2024/03/29 07:43:14;;;;;;;0.00;0.00;;;;;;;;;;5054080;28;20485;-87
2024/03/29 07:45:44;;;;;;;0.45;0.20;;;;;;;;;;5062720;28;20028;-87
2024/03/29 07:48:16;;;;;;;1.60;0.57;;;;;;;;;;5085266;28;20097;-87
2024/03/29 07:50:43;;;;;;;1.17;0.80;;;;;;;;;;5038072;28;20033;-87
2024/03/29 07:53:09;;;;;;;0.38;0.00;;;;;;;;;;5056025;28;20029;-87
2024/03/29 07:55:39;;;;;;;1.73;0.45;;;;;;;;;;5043660;28;20075;-87
2024/03/29 07:58:05;;;;;;;0.52;0.20;;;;;;;;;;5063360;28;20036;-87
2024/03/29 08:00:32;;;;;;;0.80;0.52;;;;;;;;;;5048601;28;20093;-87
2024/03/29 08:02:58;;;;;;;6.72;0.95;;;;;;;;;;5047465;28;20036;-87
2024/03/29 08:05:24;;;;;;;3.38;0.68;;;;;;;;;;5065124;28;20042;-87
2024/03/29 08:07:50;;;;;;;1.52;0.35;;;;;;;;;;5042359;28;20045;-87
2024/03/29 08:10:16;;;;;;;3.83;0.77;;;;;;;;;;5047504;28;20036;-87
2024/03/29 08:12:42;;;;;;;0.55;0.28;;;;;;;;;;5043111;28;20037;-87
2024/03/29 08:15:08;;;;;;;1.10;0.10;;;;;;;;;;5049398;28;20040;-87
2024/03/29 08:17:35;;;;;;;0.68;0.30;;;;;;;;;;5051614;28;20039;-87
2024/03/29 08:20:01;;;;;;;3.30;0.30;;;;;;;;;;5066556;28;20025;-87
2024/03/29 08:22:28;;;;;;;0.38;0.22;;;;;;;;;;5054581;28;20056;-87
2024/03/29 08:24:57;;;;;;;1.13;0.63;;;;;;;;;;5044043;28;20040;-87
2024/03/29 08:27:23;;;;;;;0.75;0.55;;;;;;;;;;5045729;28;20060;-87
2024/03/29 08:29:50;;;;;;;8.35;0.82;;;;;;;;;;5041113;28;20561;-87
2024/03/29 08:32:16;;;;;;;1.55;0.98;;;;;;;;;;5048746;28;20066;-88
2024/03/29 08:34:42;;;;;;;2.35;0.80;;;;;;;;;;5053062;28;20689;-88
2024/03/29 08:37:08;;;;;;;0.38;0.20;;;;;;;;;;5047025;28;20044;-88
2024/03/29 08:39:34;;;;;;;0.00;0.00;;;;;;;;;;5069267;28;20135;-87
2024/03/29 08:42:04;;;;;;;0.98;0.20;;;;;;;;;;5043142;28;20028;-88
2024/03/29 08:44:31;;;;;;;0.47;0.30;;;;;;;;;;5054764;28;20028;-87
2024/03/29 08:46:58;;;;;;;0.10;0.10;;;;;;;;;;5043393;28;20110;-87
2024/03/29 08:49:24;;;;;;;0.75;0.32;;;;;;;;;;5050452;28;20033;-88
2024/03/29 08:51:50;;;;;;;0.68;0.10;;;;;;;;;;5049485;28;20024;-88
2024/03/29 08:54:16;;;;;;;0.10;0.10;;;;;;;;;;5063883;28;20037;-88
2024/03/29 08:56:42;;;;;;;0.45;0.08;;;;;;;;;;5044886;28;20025;-89
2024/03/29 08:59:09;;;;;;;1.52;0.90;;;;;;;;;;5044168;28;20458;-88
2024/03/29 09:01:39;;;;;;;0.43;0.10;;;;;;;;;;5050349;28;20043;-89
2024/03/29 09:04:07;;;;;;;0.10;0.10;;;;;;;;;;5050704;28;20033;-88
2024/03/29 09:06:34;;;;;;;0.22;0.10;;;;;;;;;;5059461;28;20078;-89
2024/03/29 09:09:00;;;;;;;2.47;0.93;;;;;;;;;;5041888;28;20032;-88
2024/03/29 09:11:26;;;;;;;0.93;0.47;;;;;;;;;;5046625;28;20040;-88
2024/03/29 09:13:53;;;;;;;2.60;0.15;;;;;;;;;;5045737;28;20029;-90
2024/03/29 09:16:19;;;;;;;0.30;0.10;;;;;;;;;;5052677;28;20119;-89
2024/03/29 09:18:47;;;;;;;0.05;0.00;;;;;;;;;;5054091;28;20036;-90
2024/03/29 09:21:13;;;;;;;0.00;0.00;;;;;;;;;;5052030;28;20037;-89
2024/03/29 09:23:41;;;;;;;0.20;0.10;;;;;;;;;;5048645;28;20043;-88
2024/03/29 09:26:07;;;;;;;0.00;0.00;;;;;;;;;;5050960;28;20048;-88
2024/03/29 09:28:36;;;;;;;0.15;0.00;;;;;;;;;;5047655;28;20119;-89
2024/03/29 09:31:02;;;;;;;1.17;0.32;;;;;;;;;;5051943;28;20078;-89
2024/03/29 09:33:28;;;;;;;0.52;0.10;;;;;;;;;;5047695;28;20044;-88
2024/03/29 09:35:54;;;;;;;1.13;0.25;;;;;;;;;;5043133;28;20032;-88
2024/03/29 09:38:20;;;;;;;0.90;0.52;;;;;;;;;;5048066;28;20032;-89
2024/03/29 09:40:47;;;;;;;0.10;0.05;;;;;;;;;;5049911;28;20036;-87
2024/03/29 09:43:15;;;;;;;0.63;0.43;;;;;;;;;;5048378;28;20036;-88
2024/03/29 09:45:41;;;;;;;0.05;0.00;;;;;;;;;;5047353;28;20610;-87
2024/03/29 09:48:08;;;;;;;0.30;0.20;;;;;;;;;;5047341;28;20043;-88
2024/03/29 09:50:38;;;;;;;0.98;0.17;;;;;;;;;;5048255;28;20082;-89
2024/03/29 09:53:05;;;;;;;0.77;0.52;;;;;;;;;;5044198;28;20117;-90
2024/03/29 09:55:31;;;;;;;0.20;0.10;;;;;;;;;;5045982;28;20050;-88
2024/03/29 09:57:59;;;;;;;0.30;0.10;;;;;;;;;;5062185;28;20060;-88
2024/03/29 10:00:25;;;;;;;0.03;0.00;;;;;;;;;;5033522;28;20037;-89
2024/03/29 10:02:52;;;;;;;9.38;0.13;;;;;;;;;;5047476;28;20029;-88
2024/03/29 10:05:19;;;;;;;0.98;0.47;;;;;;;;;;5051620;28;20086;-88
2024/03/29 10:07:45;;;;;;;0.73;0.20;;;;;;;;;;5051893;28;20024;-88
2024/03/29 10:10:11;;;;;;;0.20;0.10;;;;;;;;;;5045329;28;20036;-88
2024/03/29 10:12:38;;;;;;;0.17;0.10;;;;;;;;;;5048850;28;20064;-87
2024/03/29 10:15:14;;;;;;;13.05;0.90;;;;;;;;;;5049226;28;20071;-88
2024/03/29 10:17:40;;;;;;;4.68;0.50;;;;;;;;;;5042219;28;20056;-88
2024/03/29 10:20:06;;;;;;;1.95;0.70;;;;;;;;;;5045329;28;20131;-88
2024/03/29 10:22:43;;;;;;;3.35;0.08;;;;;;;;;;5047895;28;20033;-88
2024/03/29 10:25:09;;;;;;;2.53;0.10;;;;;;;;;;5047794;28;20539;-88
2024/03/29 10:27:35;;;;;;;0.00;0.00;;;;;;;;;;5047605;28;20060;-88
2024/03/29 10:30:02;;;;;;;0.10;0.10;;;;;;;;;;5048591;28;20127;-88
2024/03/29 10:32:28;;;;;;;0.45;0.30;;;;;;;;;;5069943;28;20021;-89
2024/03/29 10:34:57;;;;;;;0.17;0.10;;;;;;;;;;5044824;28;20032;-88
2024/03/29 10:37:29;;;;;;;1.95;0.10;;;;;;;;;;5045182;28;20638;-88
2024/03/29 10:39:57;;;;;;;0.17;0.10;;;;;;;;;;5053245;28;20477;-88
2024/03/29 10:42:27;;;;;;;1.08;0.30;;;;;;;;;;5041915;28;20037;-88
2024/03/29 10:44:53;;;;;;;1.08;0.20;;;;;;;;;;5055963;28;20037;-88
2024/03/29 10:47:20;;;;;;;0.13;0.10;;;;;;;;;;5047139;28;20040;-88
2024/03/29 10:49:53;;;;;;;1.65;0.38;;;;;;;;;;5045780;28;20037;-88
2024/03/29 10:52:21;;;;;;;1.30;0.50;;;;;;;;;;5052424;28;20060;-88
2024/03/29 10:54:48;;;;;;;5.28;0.10;;;;;;;;;;5065703;28;20390;-88
2024/03/29 10:57:18;;;;;;;0.05;0.00;;;;;;;;;;5035362;28;20055;-88
2024/03/29 11:00:04;;;;;;;0.00;0.00;;;;;;;;;;5045315;28;20489;-88
2024/03/29 11:02:33;;;;;;;0.10;0.03;;;;;;;;;;5045587;28;20056;-88
2024/03/29 11:05:05;;;;;;;0.10;0.10;;;;;;;;;;5050784;28;20052;-88
2024/03/29 11:07:33;;;;;;;0.13;0.00;;;;;;;;;;5051749;28;20427;-88
2024/03/29 11:10:01;;;;;;;0.00;0.00;;;;;;;;;;5053114;28;20040;-88
2024/03/29 11:12:27;;;;;;;1.15;0.55;;;;;;;;;;5054497;28;20075;-89
2024/03/29 11:15:02;;;;;;;0.00;0.00;;;;;;;;;;5070292;28;20051;-88
2024/03/29 11:17:30;;;;;;;2.50;0.80;;;;;;;;;;5057857;28;20029;-88
2024/03/29 11:19:57;;;;;;;0.75;0.50;;;;;;;;;;5044323;28;20036;-88
2024/03/29 11:22:23;;;;;;;0.20;0.10;;;;;;;;;;5050075;28;20039;-87
2024/03/29 11:24:51;;;;;;;1.80;0.38;;;;;;;;;;5051217;28;20037;-88
2024/03/29 11:27:19;;;;;;;1.42;0.28;;;;;;;;;;5071560;28;20070;-88
2024/03/29 11:29:45;;;;;;;0.00;0.00;;;;;;;;;;5069207;28;20074;-88
2024/03/29 11:32:11;;;;;;;0.90;0.32;;;;;;;;;;5048866;28;20077;-88
2024/03/29 11:34:44;;;;;;;0.05;0.00;;;;;;;;;;5052953;28;20576;-89
2024/03/29 11:37:10;;;;;;;0.20;0.10;;;;;;;;;;5040307;28;20067;-88
2024/03/29 11:39:36;;;;;;;0.10;0.10;;;;;;;;;;5053440;28;20028;-88
2024/03/29 11:42:02;;;;;;;0.20;0.10;;;;;;;;;;5043041;28;20044;-88
2024/03/29 11:44:28;;;;;;;0.03;0.03;;;;;;;;;;5052773;28;20387;-89
2024/03/29 11:46:58;;;;;;;1.20;0.38;;;;;;;;;;5053788;28;20032;-88
2024/03/29 11:49:24;;;;;;;0.00;0.00;;;;;;;;;;5053232;28;20040;-89
2024/03/29 11:51:50;;;;;;;0.00;0.00;;;;;;;;;;5047209;28;20672;-89
2024/03/29 11:54:16;;;;;;;2.63;0.10;;;;;;;;;;5053100;28;20147;-89
2024/03/29 11:56:45;;;;;;;1.55;0.10;;;;;;;;;;5051331;28;20103;-89
2024/03/29 11:59:13;;;;;;;0.30;0.00;;;;;;;;;;5048705;28;20056;-89
2024/03/29 12:01:40;;;;;;;0.35;0.08;;;;;;;;;;5036744;28;20025;-91
2024/03/29 12:04:06;;;;;;;0.20;0.00;;;;;;;;;;5049752;28;20218;-88
2024/03/29 12:06:32;;;;;;;1.10;0.20;;;;;;;;;;5046531;28;20143;-89
2024/03/29 12:08:58;;;;;;;5.57;0.00;;;;;;;;;;5045919;28;20036;-90
2024/03/29 12:11:28;;;;;;;2.58;0.00;;;;;;;;;;5046042;28;20067;-89
2024/03/29 12:13:54;;;;;;;1.13;0.10;;;;;;;;;;5059338;28;20078;-91
2024/03/29 12:16:20;;;;;;;0.10;0.10;;;;;;;;;;5044010;28;20037;-90
2024/03/29 12:18:48;;;;;;;0.00;0.00;;;;;;;;;;5044522;28;20029;-90
2024/03/29 12:21:16;;;;;;;0.00;0.00;;;;;;;;;;5033593;28;20059;-89
2024/03/29 12:23:47;;;;;;;0.00;0.00;;;;;;;;;;5038177;28;20029;-90
2024/03/29 12:26:13;;;;;;;0.30;0.13;;;;;;;;;;5046657;28;20077;-90
2024/03/29 12:28:39;;;;;;;1.30;0.35;;;;;;;;;;5048999;28;20068;-91
2024/03/29 12:31:09;;;;;;;2.30;0.10;;;;;;;;;;5038717;28;20104;-89
2024/03/29 12:33:35;;;;;;;1.48;0.22;;;;;;;;;;5046923;28;20022;-89
2024/03/29 12:36:02;;;;;;;0.17;0.13;;;;;;;;;;5031715;28;20463;-90
2024/03/29 12:38:29;;;;;;;1.85;0.88;;;;;;;;;;5045911;28;20764;-89
2024/03/29 12:40:55;;;;;;;5.25;0.52;;;;;;;;;;5050045;28;20037;-89
2024/03/29 12:43:22;;;;;;;6.70;0.57;;;;;;;;;;5036531;28;20164;-89
2024/03/29 12:45:50;;;;;;;0.10;0.00;;;;;;;;;;5049277;28;20040;-88
2024/03/29 12:48:16;;;;;;;1.40;0.73;;;;;;;;;;5051156;28;20115;-89
2024/03/29 12:50:43;;;;;;;5.55;0.40;;;;;;;;;;5038054;28;20041;-88
2024/03/29 12:53:11;;;;;;;1.35;0.20;;;;;;;;;;5039083;28;20116;-89
2024/03/29 12:55:54;;;;;;;9.52;0.98;;;;;;;;;;5046487;28;20033;-88
2024/03/29 12:58:26;;;;;;;2.58;0.85;;;;;;;;;;5055359;22;20054;-90
2024/03/29 13:00:55;;;;;;;5.07;1.58;;;;;;;;;;5012062;28;20081;-83
2024/03/29 13:03:21;;;;;;;7.47;1.73;;;;;;;;;;5017718;28;20037;-90
2024/03/29 13:05:48;;;;;;;1.48;0.60;;;;;;;;;;5013831;28;20044;-88
2024/03/29 13:08:17;;;;;;;3.80;0.82;;;;;;;;;;5002690;28;20744;-90
2024/03/29 13:10:44;;;;;;;13.00;1.80;;;;;;;;;;4999334;28;20391;-89
2024/03/29 13:13:11;;;;;;;6.50;1.65;;;;;;;;;;5000985;28;20050;-89
2024/03/29 13:15:38;;;;;;;6.45;1.63;;;;;;;;;;5007494;28;20044;-88
2024/03/29 13:18:04;;;;;;;27.25;2.35;;;;;;;;;;5011782;28;20490;-89
2024/03/29 13:20:32;;;;;;;3.22;0.63;;;;;;;;;;4995719;28;20137;-88
2024/03/29 13:22:58;;;;;;;4.65;1.38;;;;;;;;;;5016262;28;20037;-87
2024/03/29 13:25:28;;;;;;;8.77;1.30;;;;;;;;;;4995890;28;20038;-85
2024/03/29 13:27:54;;;;;;;4.47;0.82;;;;;;;;;;5009586;28;20065;-86
2024/03/29 13:30:25;;;;;;;9.63;0.85;;;;;;;;;;4993707;28;20058;-90
2024/03/29 13:32:51;;;;;;;3.85;2.60;;;;;;;;;;5001112;28;20030;-87
2024/03/29 13:35:21;;;;;;;5.47;1.27;;;;;;;;;;5008866;28;20424;-86
2024/03/29 13:37:47;;;;;;;2.47;1.00;;;;;;;;;;5007334;28;20121;-88
2024/03/29 13:40:14;;;;;;;9.45;2.13;;;;;;;;;;5015455;28;20041;-87
2024/03/29 13:42:41;;;;;;;7.93;2.10;;;;;;;;;;5024264;28;20029;-88
2024/03/29 13:45:15;;;;;;;3.47;1.15;;;;;;;;;;5010737;28;20492;-86
2024/03/29 13:47:42;;;;;;;1.70;0.60;;;;;;;;;;4992626;28;20038;-88
2024/03/29 13:50:08;;;;;;;8.85;1.38;;;;;;;;;;4996094;28;20052;-87
2024/03/29 13:52:35;;;;;;;6.10;1.23;;;;;;;;;;5016184;28;20458;-87
2024/03/29 13:55:02;;;;;;;7.18;1.88;;;;;;;;;;4985559;28;20026;-86
2024/03/29 13:57:34;;;;;;;21.17;3.60;;;;;;;;;;5007931;28;20380;-89
2024/03/29 14:00:00;;;;;;;13.20;1.73;;;;;;;;;;4977482;28;20041;-87
2024/03/29 14:02:28;;;;;;;13.50;2.20;;;;;;;;;;4980338;28;20069;-86
2024/03/29 14:04:54;;;;;;;42.80;3.47;;;;;;;;;;4987066;28;20027;-86
2024/03/29 14:07:20;;;;;;;5.63;1.98;;;;;;;;;;4975660;28;20030;-87
2024/03/29 14:09:47;;;;;;;6.50;1.98;;;;;;;;;;4987960;28;20117;-89
2024/03/29 14:12:13;;;;;;;8.60;1.75;;;;;;;;;;4974797;28;20033;-87
2024/03/29 14:14:41;;;;;;;15.73;1.92;;;;;;;;;;5001897;28;20038;-86
2024/03/29 14:17:08;;;;;;;11.43;3.45;;;;;;;;;;4988871;28;20023;-87
2024/03/29 14:19:34;;;;;;;8.20;1.80;;;;;;;;;;4976705;28;20701;-86
2024/03/29 14:22:03;;;;;;;13.02;2.53;;;;;;;;;;4972187;28;20037;-86
2024/03/29 14:24:30;;;;;;;15.48;4.55;;;;;;;;;;4984147;28;20038;-87
2024/03/29 14:26:59;;;;;;;24.13;3.10;;;;;;;;;;4981778;28;20026;-86
2024/03/29 14:29:26;;;;;;;10.50;3.03;;;;;;;;;;4996842;28;20396;-87
2024/03/29 14:31:54;;;;;;;10.65;2.53;;;;;;;;;;4979547;28;20368;-86
2024/03/29 14:34:20;;;;;;;6.05;2.50;;;;;;;;;;4980764;28;20038;-86
2024/03/29 14:36:46;;;;;;;15.50;2.97;;;;;;;;;;4997163;28;20495;-87
2024/03/29 14:39:18;;;;;;;26.15;2.58;;;;;;;;;;4988288;28;20050;-86
2024/03/29 14:41:46;;;;;;;16.10;3.75;;;;;;;;;;4995588;28;20113;-86
2024/03/29 14:44:12;;;;;;;9.32;1.92;;;;;;;;;;4991686;28;20039;-86
2024/03/29 14:46:38;;;;;;;10.25;2.85;;;;;;;;;;4993698;28;20034;-87